sensor_id;sensor_type;location;lat;lon;timestamp;P1;durP1;ratioP1;P2;durP2;ratioP2
57697;SDS011;43531;52.152;6.366;2023-04-24T00:00:28;5.45;;;5.05;;
57697;SDS011;43531;52.152;6.366;2023-04-24T00:00:59;5.60;;;5.10;;
57697;SDS011;43531;52.152;6.366;2023-04-24T00:01:32;7.78;;;4.88;;
57697;SDS011;43531;52.152;6.366;2023-04-24T00:02:05;5.03;;;4.63;;
57697;SDS011;43531;52.152;6.366;2023-04-24T00:02:38;5.25;;;4.85;;
57697;SDS011;43531;52.152;6.366;2023-04-24T00:03:10;6.10;;;5.22;;
57697;SDS011;43531;52.152;6.366;2023-04-24T00:03:42;5.22;;;4.82;;
57697;SDS011;43531;52.152;6.366;2023-04-24T00:04:14;4.82;;;4.43;;
57697;SDS011;43531;52.152;6.366;2023-04-24T00:04:48;4.93;;;4.53;;
57697;SDS011;43531;52.152;6.366;2023-04-24T00:05:20;5.47;;;4.93;;
57697;SDS011;43531;52.152;6.366;2023-04-24T00:05:52;6.38;;;5.28;;
57697;SDS011;43531;52.152;6.366;2023-04-24T00:06:23;7.70;;;5.18;;
57697;SDS011;43531;52.152;6.366;2023-04-24T00:06:56;5.20;;;4.70;;
57697;SDS011;43531;52.152;6.366;2023-04-24T00:07:29;6.20;;;5.10;;
57697;SDS011;43531;52.152;6.366;2023-04-24T00:08:00;5.80;;;5.05;;
57697;SDS011;43531;52.152;6.366;2023-04-24T00:08:32;5.32;;;4.82;;
57697;SDS011;43531;52.152;6.366;2023-04-24T00:09:04;6.05;;;5.45;;
57697;SDS011;43531;52.152;6.366;2023-04-24T00:09:35;5.18;;;4.78;;
57697;SDS011;43531;52.152;6.366;2023-04-24T00:10:07;6.40;;;5.80;;
57697;SDS011;43531;52.152;6.366;2023-04-24T00:10:39;6.53;;;4.85;;
57697;SDS011;43531;52.152;6.366;2023-04-24T00:11:11;6.40;;;5.75;;
57697;SDS011;43531;52.152;6.366;2023-04-24T00:11:43;5.55;;;5.05;;
57697;SDS011;43531;52.152;6.366;2023-04-24T00:12:14;7.30;;;4.90;;
57697;SDS011;43531;52.152;6.366;2023-04-24T00:12:46;5.97;;;5.47;;
57697;SDS011;43531;52.152;6.366;2023-04-24T00:13:18;6.57;;;6.00;;
57697;SDS011;43531;52.152;6.366;2023-04-24T00:13:49;6.18;;;5.57;;
57697;SDS011;43531;52.152;6.366;2023-04-24T00:14:21;5.85;;;5.35;;
57697;SDS011;43531;52.152;6.366;2023-04-24T00:14:52;5.25;;;4.75;;
57697;SDS011;43531;52.152;6.366;2023-04-24T00:15:24;6.53;;;4.97;;
57697;SDS011;43531;52.152;6.366;2023-04-24T00:15:56;5.70;;;5.20;;
57697;SDS011;43531;52.152;6.366;2023-04-24T00:16:28;6.00;;;5.47;;
57697;SDS011;43531;52.152;6.366;2023-04-24T00:16:59;6.72;;;6.15;;
57697;SDS011;43531;52.152;6.366;2023-04-24T00:17:31;6.05;;;5.55;;
57697;SDS011;43531;52.152;6.366;2023-04-24T00:18:03;6.05;;;5.55;;
57697;SDS011;43531;52.152;6.366;2023-04-24T00:18:35;6.60;;;6.05;;
57697;SDS011;43531;52.152;6.366;2023-04-24T00:19:06;5.40;;;4.97;;
57697;SDS011;43531;52.152;6.366;2023-04-24T00:19:38;6.80;;;6.20;;
57697;SDS011;43531;52.152;6.366;2023-04-24T00:20:10;6.22;;;5.65;;
57697;SDS011;43531;52.152;6.366;2023-04-24T00:20:42;6.13;;;5.63;;
57697;SDS011;43531;52.152;6.366;2023-04-24T00:21:15;6.70;;;6.10;;
57697;SDS011;43531;52.152;6.366;2023-04-24T00:21:48;6.38;;;5.85;;
57697;SDS011;43531;52.152;6.366;2023-04-24T00:22:27;6.30;;;5.70;;
57697;SDS011;43531;52.152;6.366;2023-04-24T00:22:59;6.45;;;5.95;;
57697;SDS011;43531;52.152;6.366;2023-04-24T00:23:30;6.72;;;6.13;;
57697;SDS011;43531;52.152;6.366;2023-04-24T00:24:02;6.20;;;5.70;;
57697;SDS011;43531;52.152;6.366;2023-04-24T00:24:34;6.72;;;6.20;;
57697;SDS011;43531;52.152;6.366;2023-04-24T00:25:06;6.25;;;5.75;;
57697;SDS011;43531;52.152;6.366;2023-04-24T00:25:38;6.25;;;5.75;;
57697;SDS011;43531;52.152;6.366;2023-04-24T00:26:10;7.05;;;6.40;;
57697;SDS011;43531;52.152;6.366;2023-04-24T00:26:41;7.00;;;6.30;;
57697;SDS011;43531;52.152;6.366;2023-04-24T00:27:13;7.38;;;6.78;;
57697;SDS011;43531;52.152;6.366;2023-04-24T00:27:45;8.38;;;7.57;;
57697;SDS011;43531;52.152;6.366;2023-04-24T00:28:16;7.95;;;7.25;;
57697;SDS011;43531;52.152;6.366;2023-04-24T00:28:48;7.68;;;6.97;;
57697;SDS011;43531;52.152;6.366;2023-04-24T00:29:19;7.55;;;6.85;;
57697;SDS011;43531;52.152;6.366;2023-04-24T00:29:51;9.20;;;6.95;;
57697;SDS011;43531;52.152;6.366;2023-04-24T00:30:23;8.25;;;7.57;;
57697;SDS011;43531;52.152;6.366;2023-04-24T00:30:54;7.45;;;6.85;;
57697;SDS011;43531;52.152;6.366;2023-04-24T00:31:26;8.15;;;7.38;;
57697;SDS011;43531;52.152;6.366;2023-04-24T00:31:58;8.40;;;7.63;;
57697;SDS011;43531;52.152;6.366;2023-04-24T00:32:29;8.98;;;8.05;;
57697;SDS011;43531;52.152;6.366;2023-04-24T00:33:01;8.55;;;7.85;;
57697;SDS011;43531;52.152;6.366;2023-04-24T00:33:33;8.48;;;7.63;;
57697;SDS011;43531;52.152;6.366;2023-04-24T00:34:04;7.68;;;7.00;;
57697;SDS011;43531;52.152;6.366;2023-04-24T00:34:36;8.82;;;7.93;;
57697;SDS011;43531;52.152;6.366;2023-04-24T00:35:08;8.77;;;7.88;;
57697;SDS011;43531;52.152;6.366;2023-04-24T00:35:40;8.55;;;7.70;;
57697;SDS011;43531;52.152;6.366;2023-04-24T00:36:12;9.38;;;8.38;;
57697;SDS011;43531;52.152;6.366;2023-04-24T00:36:43;10.23;;;9.23;;
57697;SDS011;43531;52.152;6.366;2023-04-24T00:37:15;9.32;;;8.43;;
57697;SDS011;43531;52.152;6.366;2023-04-24T00:37:48;8.25;;;7.53;;
57697;SDS011;43531;52.152;6.366;2023-04-24T00:38:20;9.20;;;8.30;;
57697;SDS011;43531;52.152;6.366;2023-04-24T00:38:51;9.88;;;8.73;;
57697;SDS011;43531;52.152;6.366;2023-04-24T00:39:23;9.02;;;8.18;;
57697;SDS011;43531;52.152;6.366;2023-04-24T00:39:54;12.52;;;8.73;;
57697;SDS011;43531;52.152;6.366;2023-04-24T00:40:27;9.52;;;8.68;;
57697;SDS011;43531;52.152;6.366;2023-04-24T00:40:58;9.88;;;8.98;;
57697;SDS011;43531;52.152;6.366;2023-04-24T00:41:31;9.35;;;8.55;;
57697;SDS011;43531;52.152;6.366;2023-04-24T00:42:03;9.90;;;9.00;;
57697;SDS011;43531;52.152;6.366;2023-04-24T00:42:37;9.40;;;8.50;;
57697;SDS011;43531;52.152;6.366;2023-04-24T00:43:08;9.68;;;8.73;;
57697;SDS011;43531;52.152;6.366;2023-04-24T00:43:41;9.82;;;8.93;;
57697;SDS011;43531;52.152;6.366;2023-04-24T00:44:12;10.10;;;8.98;;
57697;SDS011;43531;52.152;6.366;2023-04-24T00:44:44;9.88;;;8.93;;
57697;SDS011;43531;52.152;6.366;2023-04-24T00:45:16;10.15;;;9.15;;
57697;SDS011;43531;52.152;6.366;2023-04-24T00:45:48;10.57;;;9.55;;
57697;SDS011;43531;52.152;6.366;2023-04-24T00:46:20;10.07;;;9.13;;
57697;SDS011;43531;52.152;6.366;2023-04-24T00:46:52;10.32;;;9.40;;
57697;SDS011;43531;52.152;6.366;2023-04-24T00:47:25;10.63;;;9.55;;
57697;SDS011;43531;52.152;6.366;2023-04-24T00:47:58;9.82;;;8.93;;
57697;SDS011;43531;52.152;6.366;2023-04-24T00:48:33;10.50;;;9.43;;
57697;SDS011;43531;52.152;6.366;2023-04-24T00:49:05;10.57;;;9.55;;
57697;SDS011;43531;52.152;6.366;2023-04-24T00:49:39;11.45;;;10.13;;
57697;SDS011;43531;52.152;6.366;2023-04-24T00:50:11;13.23;;;9.75;;
57697;SDS011;43531;52.152;6.366;2023-04-24T00:50:44;11.57;;;9.88;;
57697;SDS011;43531;52.152;6.366;2023-04-24T00:51:18;10.55;;;9.55;;
57697;SDS011;43531;52.152;6.366;2023-04-24T00:51:50;11.38;;;10.25;;
57697;SDS011;43531;52.152;6.366;2023-04-24T00:52:22;10.63;;;9.55;;
57697;SDS011;43531;52.152;6.366;2023-04-24T00:52:55;9.43;;;8.55;;
57697;SDS011;43531;52.152;6.366;2023-04-24T00:53:27;10.90;;;9.18;;
57697;SDS011;43531;52.152;6.366;2023-04-24T00:53:59;11.73;;;10.63;;
57697;SDS011;43531;52.152;6.366;2023-04-24T00:54:32;11.02;;;9.95;;
57697;SDS011;43531;52.152;6.366;2023-04-24T00:55:03;11.55;;;10.45;;
57697;SDS011;43531;52.152;6.366;2023-04-24T00:55:36;10.00;;;9.10;;
57697;SDS011;43531;52.152;6.366;2023-04-24T00:56:08;11.82;;;9.70;;
57697;SDS011;43531;52.152;6.366;2023-04-24T00:56:40;11.02;;;9.15;;
57697;SDS011;43531;52.152;6.366;2023-04-24T00:57:14;11.15;;;9.95;;
57697;SDS011;43531;52.152;6.366;2023-04-24T00:57:46;10.20;;;9.27;;
57697;SDS011;43531;52.152;6.366;2023-04-24T00:58:18;10.30;;;9.30;;
57697;SDS011;43531;52.152;6.366;2023-04-24T00:58:50;10.20;;;9.20;;
57697;SDS011;43531;52.152;6.366;2023-04-24T00:59:22;10.27;;;9.25;;
57697;SDS011;43531;52.152;6.366;2023-04-24T00:59:53;15.07;;;10.88;;
57697;SDS011;43531;52.152;6.366;2023-04-24T01:00:25;10.73;;;9.68;;
57697;SDS011;43531;52.152;6.366;2023-04-24T01:00:58;10.07;;;9.07;;
57697;SDS011;43531;52.152;6.366;2023-04-24T01:01:30;11.38;;;10.27;;
57697;SDS011;43531;52.152;6.366;2023-04-24T01:02:01;10.40;;;9.30;;
57697;SDS011;43531;52.152;6.366;2023-04-24T01:02:33;14.45;;;10.25;;
57697;SDS011;43531;52.152;6.366;2023-04-24T01:03:06;10.63;;;9.50;;
57697;SDS011;43531;52.152;6.366;2023-04-24T01:03:38;10.30;;;9.25;;
57697;SDS011;43531;52.152;6.366;2023-04-24T01:04:12;10.68;;;9.45;;
57697;SDS011;43531;52.152;6.366;2023-04-24T01:04:44;11.90;;;10.50;;
57697;SDS011;43531;52.152;6.366;2023-04-24T01:05:16;11.95;;;10.52;;
57697;SDS011;43531;52.152;6.366;2023-04-24T01:05:49;11.93;;;10.73;;
57697;SDS011;43531;52.152;6.366;2023-04-24T01:06:20;12.48;;;10.98;;
57697;SDS011;43531;52.152;6.366;2023-04-24T01:06:53;12.27;;;10.98;;
57697;SDS011;43531;52.152;6.366;2023-04-24T01:07:26;12.32;;;11.18;;
57697;SDS011;43531;52.152;6.366;2023-04-24T01:07:58;13.38;;;11.68;;
57697;SDS011;43531;52.152;6.366;2023-04-24T01:08:30;13.23;;;11.93;;
57697;SDS011;43531;52.152;6.366;2023-04-24T01:09:02;13.32;;;11.93;;
57697;SDS011;43531;52.152;6.366;2023-04-24T01:09:33;14.65;;;13.13;;
57697;SDS011;43531;52.152;6.366;2023-04-24T01:10:06;13.88;;;12.55;;
57697;SDS011;43531;52.152;6.366;2023-04-24T01:10:39;14.68;;;13.05;;
57697;SDS011;43531;52.152;6.366;2023-04-24T01:11:12;14.75;;;11.75;;
57697;SDS011;43531;52.152;6.366;2023-04-24T01:11:44;13.93;;;12.38;;
57697;SDS011;43531;52.152;6.366;2023-04-24T01:12:16;13.70;;;12.27;;
57697;SDS011;43531;52.152;6.366;2023-04-24T01:12:48;13.30;;;11.90;;
57697;SDS011;43531;52.152;6.366;2023-04-24T01:13:20;12.60;;;11.30;;
57697;SDS011;43531;52.152;6.366;2023-04-24T01:13:52;13.25;;;12.05;;
57697;SDS011;43531;52.152;6.366;2023-04-24T01:14:24;14.82;;;13.07;;
57697;SDS011;43531;52.152;6.366;2023-04-24T01:14:56;14.18;;;12.77;;
57697;SDS011;43531;52.152;6.366;2023-04-24T01:15:28;14.55;;;13.10;;
57697;SDS011;43531;52.152;6.366;2023-04-24T01:16:00;13.77;;;12.48;;
57697;SDS011;43531;52.152;6.366;2023-04-24T01:16:32;13.57;;;12.18;;
57697;SDS011;43531;52.152;6.366;2023-04-24T01:17:04;14.98;;;13.48;;
57697;SDS011;43531;52.152;6.366;2023-04-24T01:17:39;13.50;;;11.85;;
57697;SDS011;43531;52.152;6.366;2023-04-24T01:18:11;13.25;;;11.93;;
57697;SDS011;43531;52.152;6.366;2023-04-24T01:18:43;14.10;;;12.23;;
57697;SDS011;43531;52.152;6.366;2023-04-24T01:19:15;13.07;;;11.70;;
57697;SDS011;43531;52.152;6.366;2023-04-24T01:19:48;12.48;;;11.30;;
57697;SDS011;43531;52.152;6.366;2023-04-24T01:20:22;13.13;;;11.93;;
57697;SDS011;43531;52.152;6.366;2023-04-24T01:20:59;13.93;;;12.30;;
57697;SDS011;43531;52.152;6.366;2023-04-24T01:21:31;14.35;;;11.00;;
57697;SDS011;43531;52.152;6.366;2023-04-24T01:22:09;11.77;;;10.57;;
57697;SDS011;43531;52.152;6.366;2023-04-24T01:22:43;13.48;;;10.82;;
57697;SDS011;43531;52.152;6.366;2023-04-24T01:23:14;10.25;;;9.25;;
57697;SDS011;43531;52.152;6.366;2023-04-24T01:23:48;10.68;;;9.60;;
57697;SDS011;43531;52.152;6.366;2023-04-24T01:24:22;12.95;;;10.95;;
57697;SDS011;43531;52.152;6.366;2023-04-24T01:24:53;11.88;;;10.60;;
57697;SDS011;43531;52.152;6.366;2023-04-24T01:25:25;9.98;;;8.98;;
57697;SDS011;43531;52.152;6.366;2023-04-24T01:25:57;10.45;;;9.15;;
57697;SDS011;43531;52.152;6.366;2023-04-24T01:26:29;10.02;;;9.02;;
57697;SDS011;43531;52.152;6.366;2023-04-24T01:27:01;9.38;;;8.40;;
57697;SDS011;43531;52.152;6.366;2023-04-24T01:27:33;9.50;;;8.57;;
57697;SDS011;43531;52.152;6.366;2023-04-24T01:28:04;9.55;;;8.65;;
57697;SDS011;43531;52.152;6.366;2023-04-24T01:28:45;8.38;;;7.68;;
57697;SDS011;43531;52.152;6.366;2023-04-24T01:29:17;7.10;;;6.45;;
57697;SDS011;43531;52.152;6.366;2023-04-24T01:29:49;7.88;;;6.80;;
57697;SDS011;43531;52.152;6.366;2023-04-24T01:30:23;7.53;;;6.82;;
57697;SDS011;43531;52.152;6.366;2023-04-24T01:30:54;8.45;;;6.38;;
57697;SDS011;43531;52.152;6.366;2023-04-24T01:31:27;7.07;;;6.28;;
57697;SDS011;43531;52.152;6.366;2023-04-24T01:31:59;8.10;;;6.35;;
57697;SDS011;43531;52.152;6.366;2023-04-24T01:32:31;5.70;;;5.20;;
57697;SDS011;43531;52.152;6.366;2023-04-24T01:33:03;8.93;;;5.97;;
57697;SDS011;43531;52.152;6.366;2023-04-24T01:33:35;7.10;;;6.25;;
57697;SDS011;43531;52.152;6.366;2023-04-24T01:34:06;6.60;;;6.00;;
57697;SDS011;43531;52.152;6.366;2023-04-24T01:34:39;7.10;;;6.40;;
57697;SDS011;43531;52.152;6.366;2023-04-24T01:35:11;8.30;;;5.88;;
57697;SDS011;43531;52.152;6.366;2023-04-24T01:35:43;8.77;;;5.90;;
57697;SDS011;43531;52.152;6.366;2023-04-24T01:36:15;7.80;;;6.35;;
57697;SDS011;43531;52.152;6.366;2023-04-24T01:36:47;7.03;;;6.32;;
57697;SDS011;43531;52.152;6.366;2023-04-24T01:37:19;7.10;;;6.35;;
57697;SDS011;43531;52.152;6.366;2023-04-24T01:37:50;6.38;;;5.80;;
57697;SDS011;43531;52.152;6.366;2023-04-24T01:38:22;7.78;;;7.07;;
57697;SDS011;43531;52.152;6.366;2023-04-24T01:38:53;7.75;;;7.05;;
57697;SDS011;43531;52.152;6.366;2023-04-24T01:39:26;8.90;;;7.15;;
57697;SDS011;43531;52.152;6.366;2023-04-24T01:39:59;8.77;;;6.63;;
57697;SDS011;43531;52.152;6.366;2023-04-24T01:40:31;7.82;;;7.13;;
57697;SDS011;43531;52.152;6.366;2023-04-24T01:41:03;7.80;;;7.07;;
57697;SDS011;43531;52.152;6.366;2023-04-24T01:41:35;8.95;;;8.15;;
57697;SDS011;43531;52.152;6.366;2023-04-24T01:42:06;8.60;;;7.80;;
57697;SDS011;43531;52.152;6.366;2023-04-24T01:42:38;9.43;;;8.52;;
57697;SDS011;43531;52.152;6.366;2023-04-24T01:43:12;8.52;;;7.72;;
57697;SDS011;43531;52.152;6.366;2023-04-24T01:43:44;8.90;;;7.88;;
57697;SDS011;43531;52.152;6.366;2023-04-24T01:44:16;11.88;;;8.35;;
57697;SDS011;43531;52.152;6.366;2023-04-24T01:44:48;9.52;;;8.55;;
57697;SDS011;43531;52.152;6.366;2023-04-24T01:45:20;10.38;;;9.25;;
57697;SDS011;43531;52.152;6.366;2023-04-24T01:45:51;9.98;;;8.98;;
57697;SDS011;43531;52.152;6.366;2023-04-24T01:46:23;14.40;;;9.55;;
57697;SDS011;43531;52.152;6.366;2023-04-24T01:46:55;11.23;;;10.13;;
57697;SDS011;43531;52.152;6.366;2023-04-24T01:47:27;11.80;;;10.57;;
57697;SDS011;43531;52.152;6.366;2023-04-24T01:48:01;12.18;;;10.95;;
57697;SDS011;43531;52.152;6.366;2023-04-24T01:48:33;15.15;;;11.40;;
57697;SDS011;43531;52.152;6.366;2023-04-24T01:49:04;12.75;;;11.45;;
57697;SDS011;43531;52.152;6.366;2023-04-24T01:49:37;13.48;;;12.13;;
57697;SDS011;43531;52.152;6.366;2023-04-24T01:50:10;14.73;;;13.07;;
57697;SDS011;43531;52.152;6.366;2023-04-24T01:50:42;13.32;;;11.77;;
57697;SDS011;43531;52.152;6.366;2023-04-24T01:51:15;13.63;;;12.23;;
57697;SDS011;43531;52.152;6.366;2023-04-24T01:51:48;16.55;;;13.93;;
57697;SDS011;43531;52.152;6.366;2023-04-24T01:52:20;14.90;;;13.35;;
57697;SDS011;43531;52.152;6.366;2023-04-24T01:52:52;15.95;;;13.63;;
57697;SDS011;43531;52.152;6.366;2023-04-24T01:53:24;15.98;;;13.13;;
57697;SDS011;43531;52.152;6.366;2023-04-24T01:53:55;16.33;;;13.90;;
57697;SDS011;43531;52.152;6.366;2023-04-24T01:54:27;17.02;;;15.20;;
57697;SDS011;43531;52.152;6.366;2023-04-24T01:54:59;17.17;;;15.32;;
57697;SDS011;43531;52.152;6.366;2023-04-24T01:55:31;16.25;;;14.55;;
57697;SDS011;43531;52.152;6.366;2023-04-24T01:56:03;16.23;;;14.52;;
57697;SDS011;43531;52.152;6.366;2023-04-24T01:56:35;16.65;;;14.85;;
57697;SDS011;43531;52.152;6.366;2023-04-24T01:57:07;19.25;;;14.85;;
57697;SDS011;43531;52.152;6.366;2023-04-24T01:57:38;15.23;;;13.73;;
57697;SDS011;43531;52.152;6.366;2023-04-24T01:58:11;18.02;;;16.13;;
57697;SDS011;43531;52.152;6.366;2023-04-24T01:58:43;14.80;;;13.32;;
57697;SDS011;43531;52.152;6.366;2023-04-24T01:59:14;18.67;;;15.65;;
57697;SDS011;43531;52.152;6.366;2023-04-24T01:59:46;17.73;;;14.65;;
57697;SDS011;43531;52.152;6.366;2023-04-24T02:00:18;16.80;;;15.00;;
57697;SDS011;43531;52.152;6.366;2023-04-24T02:00:50;16.27;;;14.52;;
57697;SDS011;43531;52.152;6.366;2023-04-24T02:01:23;17.73;;;14.90;;
57697;SDS011;43531;52.152;6.366;2023-04-24T02:01:55;16.60;;;14.73;;
57697;SDS011;43531;52.152;6.366;2023-04-24T02:02:27;17.85;;;14.98;;
57697;SDS011;43531;52.152;6.366;2023-04-24T02:03:00;17.15;;;14.63;;
57697;SDS011;43531;52.152;6.366;2023-04-24T02:03:33;17.40;;;14.15;;
57697;SDS011;43531;52.152;6.366;2023-04-24T02:04:05;18.55;;;14.27;;
57697;SDS011;43531;52.152;6.366;2023-04-24T02:04:39;15.45;;;13.90;;
57697;SDS011;43531;52.152;6.366;2023-04-24T02:05:11;15.55;;;13.98;;
57697;SDS011;43531;52.152;6.366;2023-04-24T02:05:45;16.98;;;15.20;;
57697;SDS011;43531;52.152;6.366;2023-04-24T02:06:17;15.48;;;13.88;;
57697;SDS011;43531;52.152;6.366;2023-04-24T02:06:48;15.85;;;13.75;;
57697;SDS011;43531;52.152;6.366;2023-04-24T02:07:20;14.82;;;13.10;;
57697;SDS011;43531;52.152;6.366;2023-04-24T02:07:52;18.45;;;15.05;;
57697;SDS011;43531;52.152;6.366;2023-04-24T02:08:23;14.65;;;12.88;;
57697;SDS011;43531;52.152;6.366;2023-04-24T02:08:55;14.32;;;12.40;;
57697;SDS011;43531;52.152;6.366;2023-04-24T02:09:27;17.25;;;14.05;;
57697;SDS011;43531;52.152;6.366;2023-04-24T02:09:58;15.68;;;13.05;;
57697;SDS011;43531;52.152;6.366;2023-04-24T02:10:30;15.30;;;13.65;;
57697;SDS011;43531;52.152;6.366;2023-04-24T02:11:02;14.48;;;12.45;;
57697;SDS011;43531;52.152;6.366;2023-04-24T02:11:35;13.75;;;12.32;;
57697;SDS011;43531;52.152;6.366;2023-04-24T02:12:07;14.23;;;12.82;;
57697;SDS011;43531;52.152;6.366;2023-04-24T02:12:38;12.48;;;11.18;;
57697;SDS011;43531;52.152;6.366;2023-04-24T02:13:10;14.10;;;12.70;;
57697;SDS011;43531;52.152;6.366;2023-04-24T02:13:41;15.13;;;12.23;;
57697;SDS011;43531;52.152;6.366;2023-04-24T02:14:13;12.95;;;11.10;;
57697;SDS011;43531;52.152;6.366;2023-04-24T02:14:45;12.23;;;11.02;;
57697;SDS011;43531;52.152;6.366;2023-04-24T02:15:16;14.27;;;11.70;;
57697;SDS011;43531;52.152;6.366;2023-04-24T02:15:49;12.07;;;10.88;;
57697;SDS011;43531;52.152;6.366;2023-04-24T02:16:20;13.23;;;11.40;;
57697;SDS011;43531;52.152;6.366;2023-04-24T02:16:52;12.73;;;11.43;;
57697;SDS011;43531;52.152;6.366;2023-04-24T02:17:24;11.88;;;10.63;;
57697;SDS011;43531;52.152;6.366;2023-04-24T02:17:56;13.13;;;11.82;;
57697;SDS011;43531;52.152;6.366;2023-04-24T02:18:28;11.30;;;10.20;;
57697;SDS011;43531;52.152;6.366;2023-04-24T02:19:01;12.05;;;10.85;;
57697;SDS011;43531;52.152;6.366;2023-04-24T02:19:33;11.80;;;10.63;;
57697;SDS011;43531;52.152;6.366;2023-04-24T02:20:06;11.52;;;10.32;;
57697;SDS011;43531;52.152;6.366;2023-04-24T02:20:38;10.70;;;9.60;;
57697;SDS011;43531;52.152;6.366;2023-04-24T02:21:10;11.60;;;10.40;;
57697;SDS011;43531;52.152;6.366;2023-04-24T02:21:41;11.50;;;10.32;;
57697;SDS011;43531;52.152;6.366;2023-04-24T02:22:13;13.65;;;11.57;;
57697;SDS011;43531;52.152;6.366;2023-04-24T02:22:44;13.80;;;11.10;;
57697;SDS011;43531;52.152;6.366;2023-04-24T02:23:16;11.75;;;10.45;;
57697;SDS011;43531;52.152;6.366;2023-04-24T02:23:49;11.27;;;10.10;;
57697;SDS011;43531;52.152;6.366;2023-04-24T02:24:24;12.65;;;11.32;;
57697;SDS011;43531;52.152;6.366;2023-04-24T02:24:55;12.32;;;11.10;;
57697;SDS011;43531;52.152;6.366;2023-04-24T02:25:27;12.35;;;10.85;;
57697;SDS011;43531;52.152;6.366;2023-04-24T02:25:59;10.73;;;9.63;;
57697;SDS011;43531;52.152;6.366;2023-04-24T02:26:31;12.43;;;11.13;;
57697;SDS011;43531;52.152;6.366;2023-04-24T02:27:03;13.27;;;11.90;;
57697;SDS011;43531;52.152;6.366;2023-04-24T02:27:35;15.05;;;11.98;;
57697;SDS011;43531;52.152;6.366;2023-04-24T02:28:09;13.45;;;12.15;;
57697;SDS011;43531;52.152;6.366;2023-04-24T02:28:41;14.75;;;12.38;;
57697;SDS011;43531;52.152;6.366;2023-04-24T02:29:12;13.18;;;11.88;;
57697;SDS011;43531;52.152;6.366;2023-04-24T02:29:45;13.18;;;11.88;;
57697;SDS011;43531;52.152;6.366;2023-04-24T02:30:16;12.38;;;11.07;;
57697;SDS011;43531;52.152;6.366;2023-04-24T02:30:49;12.85;;;11.55;;
57697;SDS011;43531;52.152;6.366;2023-04-24T02:31:24;12.75;;;11.45;;
57697;SDS011;43531;52.152;6.366;2023-04-24T02:31:56;13.73;;;11.43;;
57697;SDS011;43531;52.152;6.366;2023-04-24T02:32:28;13.45;;;12.00;;
57697;SDS011;43531;52.152;6.366;2023-04-24T02:32:59;13.70;;;12.25;;
57697;SDS011;43531;52.152;6.366;2023-04-24T02:33:31;12.60;;;11.02;;
57697;SDS011;43531;52.152;6.366;2023-04-24T02:34:03;13.88;;;12.48;;
57697;SDS011;43531;52.152;6.366;2023-04-24T02:34:35;13.18;;;11.85;;
57697;SDS011;43531;52.152;6.366;2023-04-24T02:35:07;13.07;;;11.63;;
57697;SDS011;43531;52.152;6.366;2023-04-24T02:35:39;13.50;;;12.10;;
57697;SDS011;43531;52.152;6.366;2023-04-24T02:36:19;12.73;;;11.43;;
57697;SDS011;43531;52.152;6.366;2023-04-24T02:36:52;14.75;;;11.32;;
57697;SDS011;43531;52.152;6.366;2023-04-24T02:37:25;13.93;;;12.18;;
57697;SDS011;43531;52.152;6.366;2023-04-24T02:37:57;13.02;;;11.63;;
57697;SDS011;43531;52.152;6.366;2023-04-24T02:38:29;13.23;;;11.40;;
57697;SDS011;43531;52.152;6.366;2023-04-24T02:39:00;12.13;;;10.93;;
57697;SDS011;43531;52.152;6.366;2023-04-24T02:39:32;12.27;;;11.07;;
57697;SDS011;43531;52.152;6.366;2023-04-24T02:40:04;12.85;;;10.88;;
57697;SDS011;43531;52.152;6.366;2023-04-24T02:40:37;11.90;;;10.70;;
57697;SDS011;43531;52.152;6.366;2023-04-24T02:41:08;15.60;;;12.88;;
57697;SDS011;43531;52.152;6.366;2023-04-24T02:41:40;14.07;;;12.68;;
57697;SDS011;43531;52.152;6.366;2023-04-24T02:42:12;14.20;;;12.73;;
57697;SDS011;43531;52.152;6.366;2023-04-24T02:42:44;14.45;;;13.02;;
57697;SDS011;43531;52.152;6.366;2023-04-24T02:43:15;12.48;;;11.23;;
57697;SDS011;43531;52.152;6.366;2023-04-24T02:43:47;13.32;;;11.95;;
57697;SDS011;43531;52.152;6.366;2023-04-24T02:44:19;12.57;;;11.38;;
57697;SDS011;43531;52.152;6.366;2023-04-24T02:44:50;12.18;;;10.93;;
57697;SDS011;43531;52.152;6.366;2023-04-24T02:45:24;13.18;;;11.85;;
57697;SDS011;43531;52.152;6.366;2023-04-24T02:45:57;13.57;;;12.18;;
57697;SDS011;43531;52.152;6.366;2023-04-24T02:46:29;12.77;;;11.27;;
57697;SDS011;43531;52.152;6.366;2023-04-24T02:47:01;13.23;;;11.45;;
57697;SDS011;43531;52.152;6.366;2023-04-24T02:47:32;12.45;;;11.25;;
57697;SDS011;43531;52.152;6.366;2023-04-24T02:48:04;12.95;;;10.88;;
57697;SDS011;43531;52.152;6.366;2023-04-24T02:48:36;11.90;;;10.70;;
57697;SDS011;43531;52.152;6.366;2023-04-24T02:49:07;13.02;;;10.85;;
57697;SDS011;43531;52.152;6.366;2023-04-24T02:49:39;13.02;;;11.32;;
57697;SDS011;43531;52.152;6.366;2023-04-24T02:50:11;13.50;;;12.10;;
57697;SDS011;43531;52.152;6.366;2023-04-24T02:50:42;12.93;;;11.20;;
57697;SDS011;43531;52.152;6.366;2023-04-24T02:51:14;11.00;;;9.95;;
57697;SDS011;43531;52.152;6.366;2023-04-24T02:51:45;12.13;;;10.88;;
57697;SDS011;43531;52.152;6.366;2023-04-24T02:52:17;13.85;;;10.43;;
57697;SDS011;43531;52.152;6.366;2023-04-24T02:52:49;12.02;;;10.25;;
57697;SDS011;43531;52.152;6.366;2023-04-24T02:53:20;12.15;;;11.00;;
57697;SDS011;43531;52.152;6.366;2023-04-24T02:53:52;10.18;;;9.23;;
57697;SDS011;43531;52.152;6.366;2023-04-24T02:54:24;11.75;;;10.50;;
57697;SDS011;43531;52.152;6.366;2023-04-24T02:54:55;12.25;;;9.98;;
57697;SDS011;43531;52.152;6.366;2023-04-24T02:55:27;11.30;;;10.15;;
57697;SDS011;43531;52.152;6.366;2023-04-24T02:55:59;10.57;;;9.55;;
57697;SDS011;43531;52.152;6.366;2023-04-24T02:56:31;13.10;;;10.07;;
57697;SDS011;43531;52.152;6.366;2023-04-24T02:57:03;11.35;;;10.15;;
57697;SDS011;43531;52.152;6.366;2023-04-24T02:57:35;11.98;;;10.45;;
57697;SDS011;43531;52.152;6.366;2023-04-24T02:58:07;11.18;;;10.07;;
57697;SDS011;43531;52.152;6.366;2023-04-24T02:58:41;12.10;;;10.90;;
57697;SDS011;43531;52.152;6.366;2023-04-24T02:59:13;11.55;;;10.35;;
57697;SDS011;43531;52.152;6.366;2023-04-24T02:59:45;11.48;;;10.38;;
57697;SDS011;43531;52.152;6.366;2023-04-24T03:00:16;12.35;;;11.15;;
57697;SDS011;43531;52.152;6.366;2023-04-24T03:00:48;11.80;;;9.98;;
57697;SDS011;43531;52.152;6.366;2023-04-24T03:01:20;11.80;;;10.60;;
57697;SDS011;43531;52.152;6.366;2023-04-24T03:01:51;11.77;;;10.68;;
57697;SDS011;43531;52.152;6.366;2023-04-24T03:02:23;12.75;;;11.10;;
57697;SDS011;43531;52.152;6.366;2023-04-24T03:02:55;12.45;;;10.77;;
57697;SDS011;43531;52.152;6.366;2023-04-24T03:03:26;15.50;;;12.73;;
57697;SDS011;43531;52.152;6.366;2023-04-24T03:03:58;13.48;;;12.07;;
57697;SDS011;43531;52.152;6.366;2023-04-24T03:04:30;17.08;;;11.95;;
57697;SDS011;43531;52.152;6.366;2023-04-24T03:05:03;14.13;;;11.77;;
57697;SDS011;43531;52.152;6.366;2023-04-24T03:05:35;13.30;;;11.85;;
57697;SDS011;43531;52.152;6.366;2023-04-24T03:06:07;14.93;;;13.38;;
57697;SDS011;43531;52.152;6.366;2023-04-24T03:06:39;14.45;;;11.77;;
57697;SDS011;43531;52.152;6.366;2023-04-24T03:07:10;13.25;;;11.80;;
57697;SDS011;43531;52.152;6.366;2023-04-24T03:07:42;14.93;;;11.57;;
57697;SDS011;43531;52.152;6.366;2023-04-24T03:08:14;14.52;;;13.02;;
57697;SDS011;43531;52.152;6.366;2023-04-24T03:08:46;16.17;;;14.48;;
57697;SDS011;43531;52.152;6.366;2023-04-24T03:09:18;20.63;;;13.18;;
57697;SDS011;43531;52.152;6.366;2023-04-24T03:09:51;14.90;;;13.20;;
57697;SDS011;43531;52.152;6.366;2023-04-24T03:10:23;20.77;;;14.43;;